Time;durP1;ratioP1;P1;durP2;ratioP2;P2;SDS_P1;SDS_P2;PMS_P1;PMS_P2;Temp;Humidity;BMP_temperature;BMP_pressure;BME280_temperature;BME280_humidity;BME280_pressure;Samples;Min_cycle;Max_cycle;Signal;HPM_P1;HPM_P2
2022/03/26 00:00:21;;;;;;;31.57;27.37;;;11.50;43.90;;;;;;4991281;28;20213;-91
2022/03/26 00:02:48;;;;;;;31.33;25.77;;;11.40;44.40;;;;;;5004738;28;20187;-88
2022/03/26 00:05:15;;;;;;;31.30;26.20;;;11.30;45.00;;;;;;4990550;28;20204;-90
2022/03/26 00:07:42;;;;;;;29.93;26.50;;;11.40;44.50;;;;;;5007512;28;20315;-90
2022/03/26 00:10:08;;;;;;;30.13;26.87;;;11.50;45.40;;;;;;5005434;28;20197;-90
2022/03/26 00:12:34;;;;;;;31.53;26.97;;;11.40;44.90;;;;;;4990469;28;20183;-89
2022/03/26 00:15:01;;;;;;;30.03;26.53;;;11.30;44.70;;;;;;4992267;28;20204;-88
2022/03/26 00:17:27;;;;;;;30.27;27.07;;;11.20;44.60;;;;;;4961001;28;20202;-88
2022/03/26 00:19:53;;;;;;;32.57;26.60;;;11.10;45.20;;;;;;4998446;28;20605;-88
2022/03/26 00:22:19;;;;;;;43.67;28.17;;;11.00;44.60;;;;;;4970176;28;20818;-88
2022/03/26 00:24:45;;;;;;;32.17;25.87;;;10.80;45.20;;;;;;4986575;28;20183;-88
2022/03/26 00:27:11;;;;;;;31.27;25.97;;;10.60;45.80;;;;;;4970970;28;20668;-88
2022/03/26 00:29:37;;;;;;;29.37;26.17;;;10.60;46.00;;;;;;4998308;28;20183;-88
2022/03/26 00:32:05;;;;;;;31.03;26.37;;;10.50;45.30;;;;;;4983444;28;20197;-89
2022/03/26 00:34:32;;;;;;;28.20;24.97;;;10.50;45.10;;;;;;4970260;28;20202;-88
2022/03/26 00:36:58;;;;;;;31.43;26.07;;;10.70;44.30;;;;;;5003914;28;20221;-88
2022/03/26 00:39:24;;;;;;;30.83;24.57;;;10.80;44.20;;;;;;4981082;28;20190;-88
2022/03/26 00:41:50;;;;;;;31.00;25.67;;;10.80;44.00;;;;;;5015706;28;20174;-88
2022/03/26 00:44:16;;;;;;;32.33;25.93;;;10.90;44.00;;;;;;5012785;28;20186;-88
2022/03/26 00:46:45;;;;;;;32.20;25.57;;;10.80;44.60;;;;;;4974914;28;20217;-88
2022/03/26 00:49:12;;;;;;;28.73;24.77;;;11.00;44.60;;;;;;4998145;28;20472;-89
2022/03/26 00:51:38;;;;;;;26.97;23.37;;;10.90;43.90;;;;;;4977810;28;20669;-88
2022/03/26 00:54:04;;;;;;;32.37;24.33;;;11.00;44.20;;;;;;4963871;28;20286;-88
2022/03/26 00:56:30;;;;;;;30.40;24.20;;;11.10;43.50;;;;;;4985486;28;20207;-88
2022/03/26 00:58:56;;;;;;;29.90;25.80;;;11.10;43.80;;;;;;4961511;28;20221;-88
2022/03/26 01:01:22;;;;;;;28.07;24.47;;;11.10;44.20;;;;;;4987444;28;20658;-88
2022/03/26 01:03:47;;;;;;;27.60;24.67;;;11.00;45.00;;;;;;4986248;28;20693;-88
2022/03/26 01:06:14;;;;;;;30.67;25.30;;;11.10;44.90;;;;;;4973910;28;20215;-88
2022/03/26 01:08:41;;;;;;;25.67;22.97;;;11.10;45.00;;;;;;5007436;28;20226;-88
2022/03/26 01:11:06;;;;;;;29.43;24.50;;;11.00;45.20;;;;;;4977580;28;20239;-87
2022/03/26 01:13:34;;;;;;;31.10;25.33;;;11.00;45.50;;;;;;4955671;28;20207;-88
2022/03/26 01:16:01;;;;;;;29.80;25.30;;;10.90;45.90;;;;;;4970854;28;20309;-88
2022/03/26 01:18:28;;;;;;;28.70;24.23;;;10.90;45.40;;;;;;4973086;28;20266;-87
2022/03/26 01:20:53;;;;;;;28.77;24.30;;;10.80;45.40;;;;;;4977561;28;20218;-88
2022/03/26 01:23:20;;;;;;;26.87;23.20;;;10.80;46.20;;;;;;4970174;28;20175;-88
2022/03/26 01:25:46;;;;;;;26.80;22.50;;;10.90;46.40;;;;;;4954036;28;20266;-88
2022/03/26 01:28:13;;;;;;;27.77;23.63;;;11.10;46.40;;;;;;4986944;28;20208;-88
2022/03/26 01:30:38;;;;;;;32.53;25.13;;;11.10;46.30;;;;;;4985690;28;20190;-89
2022/03/26 01:33:04;;;;;;;28.60;23.70;;;11.10;44.70;;;;;;5005806;28;20185;-88
2022/03/26 01:35:30;;;;;;;30.07;22.27;;;11.10;45.40;;;;;;4985691;28;20215;-89
2022/03/26 01:37:56;;;;;;;26.33;23.53;;;11.00;46.50;;;;;;4977013;28;20177;-88
2022/03/26 01:40:21;;;;;;;28.33;24.13;;;11.20;46.50;;;;;;5004521;28;20494;-88
2022/03/26 01:42:47;;;;;;;27.13;23.17;;;11.10;45.80;;;;;;4995693;28;20196;-89
2022/03/26 01:45:14;;;;;;;33.27;24.23;;;11.20;45.80;;;;;;4986984;28;20185;-90
2022/03/26 01:47:40;;;;;;;32.17;23.67;;;11.10;44.60;;;;;;4987867;28;20212;-90
2022/03/26 01:50:07;;;;;;;28.97;22.37;;;10.90;45.90;;;;;;4985466;28;20197;-90
2022/03/26 01:52:32;;;;;;;26.67;23.57;;;10.70;47.00;;;;;;4986677;28;20195;-90
2022/03/26 01:54:59;;;;;;;28.17;23.57;;;10.70;46.60;;;;;;4969576;28;20187;-90
2022/03/26 01:57:25;;;;;;;29.50;25.03;;;10.60;46.70;;;;;;4986124;28;20791;-90
2022/03/26 01:59:52;;;;;;;25.00;21.07;;;10.50;46.70;;;;;;4986861;28;20195;-90
2022/03/26 02:02:18;;;;;;;28.37;23.90;;;10.60;48.00;;;;;;4986676;28;20200;-89
2022/03/26 02:04:44;;;;;;;25.33;22.63;;;10.70;46.60;;;;;;4987077;28;20189;-90
2022/03/26 02:07:09;;;;;;;24.03;21.33;;;10.80;46.20;;;;;;4993897;28;20282;-90
2022/03/26 02:09:35;;;;;;;28.47;23.57;;;10.90;46.80;;;;;;4982086;28;20207;-90
2022/03/26 02:12:27;;;;;;;29.53;24.73;;;10.80;45.40;;;;;;4985726;28;20210;-90
2022/03/26 02:14:54;;;;;;;27.00;23.77;;;10.70;45.20;;;;;;4992091;28;20191;-90
2022/03/26 02:17:20;;;;;;;27.60;22.30;;;10.70;45.50;;;;;;5007080;28;20229;-90
2022/03/26 02:20:13;;;;;;;29.90;23.57;;;10.70;46.00;;;;;;4989242;28;20201;-90
2022/03/26 02:22:40;;;;;;;35.03;25.70;;;10.70;45.10;;;;;;4999409;28;20280;-90
2022/03/26 02:25:07;;;;;;;24.97;21.97;;;10.60;45.00;;;;;;4990465;28;20167;-88
2022/03/26 02:27:33;;;;;;;24.83;21.97;;;10.70;46.80;;;;;;5000435;28;20262;-91
2022/03/26 02:29:59;;;;;;;28.77;21.57;;;10.70;46.20;;;;;;5002542;28;20190;-90
2022/03/26 02:32:27;;;;;;;26.37;22.40;;;10.70;45.40;;;;;;5001711;28;20701;-90
2022/03/26 02:34:54;;;;;;;25.93;22.43;;;10.70;45.70;;;;;;5001411;28;20178;-90
2022/03/26 02:37:19;;;;;;;29.17;23.50;;;10.70;45.70;;;;;;5001827;28;20190;-90
2022/03/26 02:39:45;;;;;;;27.67;23.77;;;10.70;45.10;;;;;;4983460;28;20206;-89
2022/03/26 02:42:12;;;;;;;28.60;23.70;;;10.60;45.20;;;;;;4987740;28;20235;-90
2022/03/26 02:44:39;;;;;;;27.97;24.03;;;10.50;45.30;;;;;;4964717;28;20273;-90
2022/03/26 02:47:07;;;;;;;28.07;22.73;;;10.40;45.40;;;;;;4989875;28;20235;-90
2022/03/26 02:49:32;;;;;;;30.03;22.70;;;10.40;46.00;;;;;;5003639;28;20186;-89
2022/03/26 02:51:58;;;;;;;27.27;22.43;;;10.50;47.10;;;;;;5002805;28;20210;-90
2022/03/26 02:54:24;;;;;;;29.53;23.43;;;10.50;46.60;;;;;;4970574;28;20206;-90
2022/03/26 02:56:51;;;;;;;27.10;22.60;;;10.50;45.90;;;;;;4982689;28;20227;-90
2022/03/26 02:59:18;;;;;;;27.40;23.20;;;10.50;46.50;;;;;;4981935;28;20183;-90
2022/03/26 03:01:47;;;;;;;26.17;22.43;;;10.50;46.50;;;;;;4981879;28;20194;-90
2022/03/26 03:04:13;;;;;;;29.37;23.93;;;10.40;47.00;;;;;;4973234;28;20187;-90
2022/03/26 03:06:39;;;;;;;28.17;24.80;;;10.30;46.20;;;;;;5006344;28;20244;-89
2022/03/26 03:09:06;;;;;;;25.47;22.27;;;10.30;46.30;;;;;;4988589;28;20654;-88
2022/03/26 03:11:33;;;;;;;29.53;24.67;;;10.30;46.90;;;;;;4973300;28;20278;-89
2022/03/26 03:13:58;;;;;;;30.27;23.80;;;10.30;46.70;;;;;;4987401;28;20187;-89
2022/03/26 03:16:24;;;;;;;30.20;23.77;;;10.20;46.70;;;;;;4997111;28;20371;-89
2022/03/26 03:18:50;;;;;;;26.20;22.73;;;10.10;47.00;;;;;;4987670;28;20196;-89
2022/03/26 03:21:17;;;;;;;28.83;23.57;;;10.00;47.50;;;;;;4988774;28;20190;-89
2022/03/26 03:23:43;;;;;;;31.50;23.10;;;9.80;48.00;;;;;;4988970;28;20182;-89
2022/03/26 03:26:08;;;;;;;31.13;24.83;;;9.70;48.70;;;;;;4989702;28;20696;-89
2022/03/26 03:28:34;;;;;;;30.53;24.90;;;9.60;48.20;;;;;;4985275;28;20213;-89
2022/03/26 03:31:00;;;;;;;30.73;23.90;;;9.70;48.30;;;;;;4997529;28;20186;-89
2022/03/26 03:33:26;;;;;;;29.00;23.77;;;9.80;48.00;;;;;;5007045;28;20190;-89
2022/03/26 03:35:53;;;;;;;30.67;24.43;;;9.80;48.80;;;;;;5001722;28;20207;-89
2022/03/26 03:38:18;;;;;;;28.80;23.07;;;9.70;48.10;;;;;;4986304;28;20565;-89
2022/03/26 03:40:44;;;;;;;25.93;22.47;;;9.70;48.30;;;;;;4988438;28;20183;-89
2022/03/26 03:43:10;;;;;;;29.20;23.73;;;9.70;48.80;;;;;;4991804;28;20179;-89
2022/03/26 03:45:36;;;;;;;25.80;22.40;;;9.70;48.60;;;;;;4992761;28;20215;-88
2022/03/26 03:48:02;;;;;;;27.77;22.43;;;9.70;48.40;;;;;;5003492;28;20214;-89
2022/03/26 03:50:27;;;;;;;26.77;22.77;;;9.70;48.00;;;;;;4973645;28;20246;-88
2022/03/26 03:52:53;;;;;;;28.33;23.73;;;9.50;48.40;;;;;;4973201;28;20186;-88
2022/03/26 03:55:19;;;;;;;30.20;24.23;;;9.40;49.00;;;;;;5008605;28;20186;-88
2022/03/26 03:57:45;;;;;;;27.93;22.87;;;9.30;49.20;;;;;;5001935;28;20661;-88
2022/03/26 04:00:13;;;;;;;29.17;23.53;;;9.30;49.20;;;;;;4997828;28;20201;-88
2022/03/26 04:02:40;;;;;;;26.87;22.80;;;9.20;49.60;;;;;;5007049;28;20191;-87
2022/03/26 04:05:09;;;;;;;28.00;23.47;;;9.20;49.30;;;;;;5000344;28;20192;-88
2022/03/26 04:07:38;;;;;;;32.33;22.40;;;9.20;49.80;;;;;;4973045;28;20231;-88
2022/03/26 04:10:07;;;;;;;30.20;21.87;;;9.20;49.60;;;;;;5000774;28;20183;-88
2022/03/26 04:12:34;;;;;;;26.47;20.30;;;9.10;50.00;;;;;;4994845;28;20194;-88
2022/03/26 04:15:00;;;;;;;28.80;20.93;;;9.00;50.60;;;;;;4980438;28;20190;-87
2022/03/26 04:17:26;;;;;;;26.00;20.80;;;9.10;50.40;;;;;;4999200;28;20190;-88
2022/03/26 04:19:53;;;;;;;26.30;20.90;;;9.20;49.80;;;;;;5000157;28;20174;-87
2022/03/26 04:22:18;;;;;;;24.83;19.70;;;9.30;50.00;;;;;;4994897;28;20205;-89
2022/03/26 04:24:44;;;;;;;24.60;19.57;;;9.30;49.60;;;;;;5015436;28;20190;-88
2022/03/26 04:27:10;;;;;;;27.13;20.70;;;9.50;49.80;;;;;;4991052;28;20230;-88
2022/03/26 04:29:36;;;;;;;25.73;19.90;;;9.40;49.80;;;;;;4976353;28;20190;-88
2022/03/26 04:32:03;;;;;;;26.23;19.17;;;9.50;49.90;;;;;;4994062;28;20198;-88
2022/03/26 04:34:29;;;;;;;23.63;19.67;;;9.40;48.50;;;;;;5002186;28;20178;-88
2022/03/26 04:36:55;;;;;;;22.13;18.37;;;9.30;48.50;;;;;;5002109;28;20709;-88
2022/03/26 04:39:21;;;;;;;25.47;19.43;;;9.20;48.60;;;;;;4998368;28;20179;-88
2022/03/26 04:41:47;;;;;;;23.03;19.13;;;9.20;48.70;;;;;;4995954;28;20213;-88
2022/03/26 04:44:14;;;;;;;23.50;17.93;;;9.20;49.10;;;;;;4987303;28;20301;-88
2022/03/26 04:46:40;;;;;;;24.27;17.97;;;9.10;49.20;;;;;;4978936;28;20214;-88
2022/03/26 04:49:06;;;;;;;22.67;17.37;;;9.10;49.30;;;;;;4987441;28;20259;-88
2022/03/26 04:51:32;;;;;;;23.17;17.30;;;9.20;49.70;;;;;;4991710;28;20202;-88
2022/03/26 04:53:57;;;;;;;23.73;18.13;;;9.20;49.30;;;;;;4965450;28;20209;-88
2022/03/26 04:56:23;;;;;;;22.23;17.93;;;9.10;48.60;;;;;;4999931;28;20214;-88
2022/03/26 04:58:49;;;;;;;23.73;18.70;;;9.10;49.10;;;;;;4979104;28;20278;-88
2022/03/26 05:01:15;;;;;;;22.23;16.57;;;9.10;49.10;;;;;;4986972;28;20190;-88
2022/03/26 05:03:42;;;;;;;22.43;17.07;;;9.10;49.50;;;;;;4987408;28;20183;-89
2022/03/26 05:06:08;;;;;;;22.10;18.00;;;9.20;48.80;;;;;;4985869;28;20211;-88
2022/03/26 05:08:33;;;;;;;25.10;17.47;;;9.00;48.60;;;;;;4997199;28;20210;-88
2022/03/26 05:10:59;;;;;;;23.53;17.93;;;8.90;49.90;;;;;;4996493;28;20191;-89
2022/03/26 05:13:26;;;;;;;23.33;17.23;;;8.80;49.60;;;;;;5007026;28;20183;-87
2022/03/26 05:15:52;;;;;;;19.40;16.93;;;8.80;49.30;;;;;;4987571;28;20233;-89
2022/03/26 05:18:18;;;;;;;22.07;16.90;;;8.70;50.30;;;;;;5002606;28;20782;-88
2022/03/26 05:20:44;;;;;;;21.80;18.03;;;8.60;50.50;;;;;;5005897;28;20229;-88
2022/03/26 05:23:10;;;;;;;24.83;18.77;;;8.60;50.40;;;;;;4988547;28;20240;-88
2022/03/26 05:25:36;;;;;;;25.70;18.10;;;8.70;50.40;;;;;;4983079;28;20214;-88
2022/03/26 05:28:02;;;;;;;22.73;17.97;;;8.60;50.40;;;;;;4980110;28;20226;-89
2022/03/26 05:30:28;;;;;;;21.13;17.30;;;8.70;50.80;;;;;;4998465;28;20194;-88
2022/03/26 05:32:55;;;;;;;21.77;17.60;;;8.60;50.90;;;;;;4991561;28;20355;-88
2022/03/26 05:35:21;;;;;;;27.33;17.70;;;8.70;51.10;;;;;;5000763;28;20230;-89
2022/03/26 05:37:49;;;;;;;26.97;19.17;;;8.70;50.70;;;;;;4997836;28;20190;-89
2022/03/26 05:40:16;;;;;;;22.57;16.23;;;8.80;51.10;;;;;;4982502;28;20190;-88
2022/03/26 05:42:43;;;;;;;26.63;17.70;;;8.70;50.10;;;;;;4998140;28;20221;-89
2022/03/26 05:45:10;;;;;;;24.17;18.27;;;8.60;50.80;;;;;;4974003;28;20198;-88
2022/03/26 05:47:37;;;;;;;28.13;19.57;;;8.60;50.70;;;;;;4977294;28;20210;-89
2022/03/26 05:50:05;;;;;;;27.07;18.53;;;8.50;51.20;;;;;;5003385;28;20186;-89
2022/03/26 05:52:31;;;;;;;25.97;19.13;;;8.40;51.30;;;;;;4970615;28;20187;-89
2022/03/26 05:54:56;;;;;;;22.03;17.90;;;8.50;51.40;;;;;;4969834;28;20195;-89
2022/03/26 05:57:22;;;;;;;23.63;17.03;;;8.60;51.30;;;;;;4988542;28;20214;-89
2022/03/26 05:59:48;;;;;;;22.70;17.70;;;8.60;51.50;;;;;;4987369;28;20191;-89
2022/03/26 06:02:14;;;;;;;27.47;17.97;;;8.60;51.10;;;;;;4975165;28;20183;-89
2022/03/26 06:04:44;;;;;;;21.20;17.07;;;8.60;50.80;;;;;;4987290;28;20197;-88
2022/03/26 06:07:10;;;;;;;25.07;18.00;;;8.50;51.60;;;;;;4997753;28;20241;-88
2022/03/26 06:09:36;;;;;;;24.00;18.37;;;8.30;51.80;;;;;;4974773;28;20754;-89
2022/03/26 06:12:03;;;;;;;25.00;17.80;;;8.30;52.20;;;;;;5008407;28;20187;-89
2022/03/26 06:14:29;;;;;;;23.43;17.70;;;8.40;52.50;;;;;;5003821;28;20171;-89
2022/03/26 06:16:55;;;;;;;23.67;17.20;;;8.40;52.00;;;;;;4993211;28;20214;-89
2022/03/26 06:19:21;;;;;;;23.93;16.90;;;8.20;52.10;;;;;;4980810;28;20200;-88
2022/03/26 06:21:47;;;;;;;22.53;16.67;;;8.10;52.80;;;;;;4963066;28;20191;-88
2022/03/26 06:24:13;;;;;;;24.10;17.93;;;8.10;52.70;;;;;;4988386;28;20186;-88
2022/03/26 06:26:41;;;;;;;27.00;18.53;;;8.10;52.70;;;;;;4965785;28;20217;-88
2022/03/26 06:29:07;;;;;;;23.03;16.93;;;8.10;53.10;;;;;;4985031;28;20314;-88
2022/03/26 06:31:32;;;;;;;24.53;17.07;;;8.10;53.60;;;;;;4996654;28;20195;-87
2022/03/26 06:33:58;;;;;;;24.47;18.27;;;8.10;53.20;;;;;;4981818;28;20206;-88
2022/03/26 06:36:25;;;;;;;28.70;17.90;;;8.10;53.00;;;;;;4997097;28;20210;-87
2022/03/26 06:38:51;;;;;;;25.57;18.40;;;8.10;53.60;;;;;;4998384;28;20233;-88
2022/03/26 06:41:17;;;;;;;23.63;17.00;;;8.10;53.30;;;;;;5005938;28;20182;-89
2022/03/26 06:43:44;;;;;;;23.77;17.70;;;8.10;53.10;;;;;;5004525;28;20193;-89
2022/03/26 06:46:10;;;;;;;24.90;17.10;;;8.10;53.20;;;;;;5005794;28;20214;-88
2022/03/26 06:48:37;;;;;;;20.53;17.00;;;8.20;52.90;;;;;;4998379;28;20206;-89
2022/03/26 06:51:06;;;;;;;27.87;18.47;;;8.30;53.00;;;;;;4985240;28;20207;-88
2022/03/26 06:53:33;;;;;;;22.73;17.83;;;8.30;52.80;;;;;;4999698;28;20194;-89
2022/03/26 06:55:59;;;;;;;24.63;18.10;;;8.40;52.50;;;;;;5006342;28;20744;-89
2022/03/26 06:58:25;;;;;;;25.67;17.80;;;8.50;52.30;;;;;;4970868;28;20206;-88
2022/03/26 07:00:52;;;;;;;24.80;17.80;;;8.50;52.20;;;;;;4992041;28;20187;-88
2022/03/26 07:03:18;;;;;;;21.87;18.03;;;8.50;52.10;;;;;;4989979;28;20182;-88
2022/03/26 07:05:44;;;;;;;23.20;18.77;;;8.60;51.50;;;;;;5007066;28;20261;-88
2022/03/26 07:08:10;;;;;;;23.43;17.77;;;8.50;52.00;;;;;;4986415;28;20226;-88
2022/03/26 07:10:37;;;;;;;27.87;18.70;;;8.60;51.60;;;;;;4986365;28;20183;-88
2022/03/26 07:13:03;;;;;;;22.47;18.03;;;8.70;51.40;;;;;;4988657;28;20193;-88
2022/03/26 07:15:31;;;;;;;25.97;18.83;;;8.80;50.90;;;;;;4981020;28;20236;-90
2022/03/26 07:17:58;;;;;;;24.33;18.33;;;8.80;50.70;;;;;;4992882;28;20186;-89
2022/03/26 07:20:24;;;;;;;24.63;18.37;;;8.90;50.80;;;;;;4972023;28;20270;-88
2022/03/26 07:22:50;;;;;;;24.80;19.97;;;8.90;50.70;;;;;;4997322;28;20646;-89
2022/03/26 07:25:15;;;;;;;27.30;19.53;;;9.00;50.70;;;;;;4985693;28;20187;-88
2022/03/26 07:27:41;;;;;;;23.93;18.90;;;9.00;50.40;;;;;;5002035;28;20220;-88
2022/03/26 07:30:08;;;;;;;24.90;19.30;;;9.00;50.60;;;;;;5002210;28;20190;-88
2022/03/26 07:32:34;;;;;;;31.47;19.83;;;9.10;50.30;;;;;;4985339;28;20239;-88
2022/03/26 07:35:01;;;;;;;23.70;19.60;;;9.20;50.00;;;;;;4987319;28;20198;-89
2022/03/26 07:37:26;;;;;;;25.80;20.13;;;9.20;49.90;;;;;;4999116;28;20202;-88
2022/03/26 07:39:52;;;;;;;25.20;19.23;;;9.40;49.50;;;;;;5006819;28;20293;-88
2022/03/26 07:42:18;;;;;;;24.40;18.23;;;9.40;49.40;;;;;;4984115;28;20211;-89
2022/03/26 07:44:44;;;;;;;23.60;18.90;;;9.50;49.10;;;;;;4994248;28;20195;-89
2022/03/26 07:47:10;;;;;;;26.93;20.17;;;9.60;49.10;;;;;;4995752;28;20222;-89
2022/03/26 07:49:36;;;;;;;27.97;20.00;;;9.60;48.60;;;;;;5008341;28;20183;-89
2022/03/26 07:52:03;;;;;;;25.47;19.70;;;9.70;48.50;;;;;;5008785;28;20252;-89
2022/03/26 07:54:28;;;;;;;25.83;20.07;;;9.70;48.30;;;;;;4989953;28;20186;-87
2022/03/26 07:56:54;;;;;;;26.17;20.10;;;9.90;48.10;;;;;;4990119;28;20210;-89
2022/03/26 07:59:20;;;;;;;28.97;21.10;;;10.00;48.00;;;;;;5008615;28;20186;-89
2022/03/26 08:01:45;;;;;;;27.80;20.23;;;10.10;47.20;;;;;;4981180;28;20309;-88
2022/03/26 08:04:12;;;;;;;29.60;22.20;;;10.20;47.50;;;;;;4983829;28;20186;-88
2022/03/26 08:06:38;;;;;;;24.73;19.63;;;10.20;47.20;;;;;;4997710;28;20221;-89
2022/03/26 08:09:04;;;;;;;24.43;20.10;;;10.40;46.90;;;;;;5011221;28;20337;-88
2022/03/26 08:11:30;;;;;;;24.20;19.67;;;10.40;46.50;;;;;;4994545;28;20693;-88
2022/03/26 08:13:55;;;;;;;28.00;19.50;;;10.50;46.90;;;;;;5002296;28;20545;-88
2022/03/26 08:16:21;;;;;;;29.97;20.73;;;10.60;46.60;;;;;;4993010;28;20214;-88
2022/03/26 08:18:47;;;;;;;25.43;20.50;;;10.60;46.30;;;;;;4994588;28;20259;-88
2022/03/26 08:21:15;;;;;;;28.27;20.27;;;10.60;46.30;;;;;;4981212;28;20198;-88
2022/03/26 08:23:41;;;;;;;24.07;19.70;;;10.60;46.10;;;;;;4991936;28;20242;-89
2022/03/26 08:26:19;;;;;;;22.10;18.40;;;10.80;46.30;;;;;;4992170;28;20249;-88
2022/03/26 08:28:49;;;;;;;25.50;20.03;;;10.90;45.60;;;;;;5004149;28;20221;-88
2022/03/26 08:31:15;;;;;;;31.77;20.10;;;11.00;45.60;;;;;;4989034;28;20265;-89
2022/03/26 08:33:40;;;;;;;29.73;21.67;;;11.10;45.60;;;;;;4997053;28;20194;-88
2022/03/26 08:36:07;;;;;;;26.17;21.23;;;11.30;45.30;;;;;;5018202;28;20257;-87
2022/03/26 08:38:34;;;;;;;30.87;22.80;;;11.40;45.30;;;;;;5013839;28;20186;-87
2022/03/26 08:40:59;;;;;;;26.90;20.43;;;11.50;44.90;;;;;;4997896;28;20185;-86
2022/03/26 08:43:25;;;;;;;25.83;21.13;;;11.60;44.50;;;;;;4995456;28;20218;-87
2022/03/26 08:45:51;;;;;;;26.60;20.73;;;11.70;44.80;;;;;;4974117;28;20222;-87
2022/03/26 08:48:17;;;;;;;26.73;21.20;;;11.80;44.40;;;;;;4988798;28;20234;-87
2022/03/26 08:50:43;;;;;;;24.87;20.17;;;11.90;44.10;;;;;;5005301;28;20179;-88
2022/03/26 08:53:10;;;;;;;32.57;21.67;;;11.90;44.10;;;;;;4991190;28;20197;-87
2022/03/26 08:55:36;;;;;;;26.13;21.50;;;12.00;43.50;;;;;;4979270;28;20273;-88
2022/03/26 08:58:02;;;;;;;28.13;22.03;;;12.20;43.80;;;;;;4988216;28;20191;-88
2022/03/26 09:00:28;;;;;;;28.33;20.97;;;12.30;43.00;;;;;;4990097;28;20240;-87
2022/03/26 09:02:55;;;;;;;26.20;20.87;;;12.40;43.00;;;;;;5005375;28;20187;-88
2022/03/26 09:05:20;;;;;;;29.30;23.53;;;12.60;43.00;;;;;;4992964;28;20185;-87
2022/03/26 09:07:46;;;;;;;33.23;22.40;;;12.90;42.70;;;;;;4977698;28;20230;-87
2022/03/26 09:10:12;;;;;;;27.87;22.47;;;13.10;42.10;;;;;;4975331;28;20187;-87
2022/03/26 09:12:38;;;;;;;26.47;22.83;;;13.30;40.90;;;;;;4981909;28;20189;-88
2022/03/26 09:15:07;;;;;;;25.60;22.33;;;13.50;40.40;;;;;;4988256;28;20189;-88
2022/03/26 09:17:33;;;;;;;29.37;22.53;;;13.60;40.00;;;;;;4987751;28;20215;-88
2022/03/26 09:19:59;;;;;;;32.30;23.30;;;13.70;40.10;;;;;;4991118;28;20183;-88
2022/03/26 09:22:25;;;;;;;29.93;24.37;;;13.90;39.80;;;;;;4990717;28;20535;-87
2022/03/26 09:24:51;;;;;;;33.43;23.90;;;13.90;39.50;;;;;;5000020;28;20281;-88
2022/03/26 09:27:17;;;;;;;31.00;23.27;;;13.90;39.70;;;;;;5006497;28;20229;-88
2022/03/26 09:29:45;;;;;;;34.37;24.13;;;13.80;39.60;;;;;;5005392;28;20184;-88
2022/03/26 09:32:11;;;;;;;31.03;23.60;;;13.80;39.90;;;;;;4983565;28;20192;-88
2022/03/26 09:34:36;;;;;;;33.13;23.53;;;14.10;39.30;;;;;;5004518;28;20189;-87
2022/03/26 09:37:03;;;;;;;28.90;24.97;;;14.30;38.50;;;;;;5007729;28;20202;-88
2022/03/26 09:39:29;;;;;;;34.43;24.30;;;14.50;37.90;;;;;;4997095;28;20187;-87
2022/03/26 09:41:57;;;;;;;36.33;24.57;;;14.70;38.10;;;;;;5008677;28;20186;-88
2022/03/26 09:44:23;;;;;;;33.73;25.03;;;15.10;36.50;;;;;;4977857;28;20465;-88
2022/03/26 09:46:49;;;;;;;32.13;24.93;;;15.20;36.30;;;;;;4992140;28;20266;-88
2022/03/26 09:49:14;;;;;;;28.37;24.43;;;15.30;36.40;;;;;;4968888;28;20294;-88
2022/03/26 09:51:41;;;;;;;34.73;26.00;;;15.70;36.00;;;;;;4988979;28;20195;-88
2022/03/26 09:54:07;;;;;;;34.23;27.47;;;15.80;36.10;;;;;;5000051;28;20189;-88
2022/03/26 09:56:34;;;;;;;31.10;25.53;;;16.00;35.30;;;;;;4994898;28;20503;-88
2022/03/26 09:59:00;;;;;;;34.00;27.33;;;15.90;35.20;;;;;;4999382;28;20182;-88
2022/03/26 10:01:26;;;;;;;34.00;27.20;;;16.10;34.90;;;;;;4993629;28;20267;-88
2022/03/26 10:04:15;;;;;;;28.77;25.63;;;16.20;34.60;;;;;;4997296;28;20197;-88
2022/03/26 10:06:50;;;;;;;31.13;26.47;;;16.40;34.30;;;;;;5002304;28;20218;-88
2022/03/26 10:09:34;;;;;;;30.60;26.13;;;16.60;33.90;;;;;;4996410;28;20233;-88
2022/03/26 10:12:09;;;;;;;32.30;26.87;;;16.80;34.50;;;;;;4989201;28;20178;-88
2022/03/26 10:14:40;;;;;;;32.27;28.00;;;16.80;33.50;;;;;;4996514;28;20608;-88
2022/03/26 10:17:23;;;;;;;36.90;28.17;;;17.00;33.20;;;;;;4999884;28;20239;-88
2022/03/26 10:19:57;;;;;;;35.33;28.27;;;17.10;32.10;;;;;;4999351;28;20191;-88
2022/03/26 10:22:30;;;;;;;37.10;29.43;;;17.20;32.40;;;;;;4999214;28;20206;-88
2022/03/26 10:24:58;;;;;;;32.60;28.73;;;17.50;32.50;;;;;;4985257;28;20261;-88
2022/03/26 10:27:24;;;;;;;34.53;29.43;;;17.70;31.50;;;;;;4991280;28;20205;-89
2022/03/26 10:29:56;;;;;;;33.40;28.80;;;17.90;31.40;;;;;;4986774;28;20188;-88
2022/03/26 10:32:45;;;;;;;34.97;28.47;;;18.00;30.80;;;;;;5001522;28;20277;-89
2022/03/26 10:35:27;;;;;;;31.80;27.53;;;18.00;31.00;;;;;;4993197;28;20213;-88
2022/03/26 10:38:03;;;;;;;31.73;26.47;;;18.30;31.00;;;;;;4992260;28;20197;-89
2022/03/26 10:40:34;;;;;;;36.03;27.67;;;18.50;31.20;;;;;;4986113;28;20197;-88
2022/03/26 10:43:12;;;;;;;31.57;27.40;;;18.70;30.80;;;;;;4969536;28;20194;-89
2022/03/26 10:45:50;;;;;;;31.57;28.17;;;18.60;30.50;;;;;;4999474;28;20222;-88
2022/03/26 10:48:26;;;;;;;32.43;28.93;;;18.70;30.50;;;;;;4951466;28;20214;-89
2022/03/26 10:51:01;;;;;;;34.60;28.10;;;18.80;30.40;;;;;;4970711;28;20186;-89
2022/03/26 10:53:41;;;;;;;38.00;29.03;;;19.10;30.70;;;;;;4992240;28;20185;-88
2022/03/26 10:56:10;;;;;;;32.03;28.33;;;19.20;29.80;;;;;;4977160;28;20315;-88
2022/03/26 10:58:37;;;;;;;33.60;27.93;;;19.20;29.90;;;;;;4996702;28;20261;-88
2022/03/26 11:01:04;;;;;;;32.20;28.67;;;19.10;29.80;;;;;;4991764;28;20249;-89
2022/03/26 11:03:30;;;;;;;34.53;29.50;;;19.30;29.60;;;;;;4987029;28;20325;-88
2022/03/26 11:05:57;;;;;;;39.92;29.00;;;19.50;30.30;;;;;;4993573;28;20247;-89
2022/03/26 11:08:24;;;;;;;35.30;28.88;;;19.70;29.20;;;;;;4982656;28;20590;-89
2022/03/26 11:10:55;;;;;;;35.83;29.80;;;19.70;29.30;;;;;;4983218;28;20568;-89
2022/03/26 11:13:23;;;;;;;37.03;30.73;;;19.60;29.00;;;;;;4984805;28;20186;-89
2022/03/26 11:15:54;;;;;;;33.90;29.10;;;19.50;29.00;;;;;;4986088;28;20208;-89
2022/03/26 11:18:35;;;;;;;33.00;29.27;;;19.60;29.20;;;;;;4985000;28;20190;-89
2022/03/26 11:21:11;;;;;;;38.45;29.48;;;20.10;28.50;;;;;;4988744;28;20627;-89
2022/03/26 11:24:20;;;;;;;33.35;29.70;;;20.20;28.60;;;;;;4984318;28;20202;-89
2022/03/26 11:27:11;;;;;;;33.97;29.40;;;20.30;28.90;;;;;;5001976;28;20218;-87
2022/03/26 11:29:43;;;;;;;33.90;30.17;;;20.50;27.90;;;;;;4982060;28;20201;-88
2022/03/26 11:32:37;;;;;;;32.45;29.15;;;20.70;27.80;;;;;;4990245;28;20190;-88
2022/03/26 11:35:09;;;;;;;41.25;31.25;;;20.80;27.70;;;;;;4979482;28;20191;-88
2022/03/26 11:37:35;;;;;;;33.45;28.83;;;20.90;27.00;;;;;;5003205;28;20186;-88
2022/03/26 11:40:01;;;;;;;33.97;30.30;;;20.90;27.70;;;;;;4983289;28;20194;-88
2022/03/26 11:42:37;;;;;;;32.88;28.27;;;21.00;27.30;;;;;;4973573;28;20189;-88
2022/03/26 11:51:24;;;;;;;30.83;27.50;;;21.40;26.50;;;;;;5006790;28;20199;-88
2022/03/26 11:54:05;;;;;;;38.08;29.10;;;21.70;26.30;;;;;;4969739;28;20209;-89
2022/03/26 11:56:32;;;;;;;32.97;28.25;;;21.50;25.80;;;;;;4979713;28;20685;-88
2022/03/26 11:59:07;;;;;;;32.13;28.20;;;21.70;26.10;;;;;;5002906;28;20214;-88
2022/03/26 12:01:38;;;;;;;37.15;30.08;;;21.70;25.80;;;;;;4997898;28;20688;-88
2022/03/26 12:04:12;;;;;;;35.25;28.55;;;21.80;25.80;;;;;;4996492;28;20190;-88
2022/03/26 12:06:49;;;;;;;35.40;28.73;;;21.70;25.80;;;;;;4977531;28;20371;-87
2022/03/26 12:09:35;;;;;;;32.88;29.48;;;21.70;25.70;;;;;;4988032;28;20202;-86
2022/03/26 12:12:16;;;;;;;37.08;30.15;;;21.70;25.40;;;;;;4961271;28;20183;-87
2022/03/26 12:15:04;;;;;;;31.67;27.83;;;22.10;25.20;;;;;;4987835;28;20179;-88
2022/03/26 12:18:07;;;;;;;32.78;29.20;;;22.50;25.30;;;;;;4994894;28;20219;-87
2022/03/26 12:20:38;;;;;;;32.92;27.58;;;22.70;24.50;;;;;;5005055;28;20199;-88
2022/03/26 12:23:29;;;;;;;28.63;25.77;;;22.80;24.30;;;;;;5002068;28;20656;-88
2022/03/26 12:26:05;;;;;;;29.23;25.63;;;22.80;23.90;;;;;;4989892;28;20240;-86
2022/03/26 12:28:36;;;;;;;28.90;25.90;;;22.80;23.40;;;;;;4990049;28;20286;-87
2022/03/26 12:31:14;;;;;;;28.40;25.50;;;23.10;23.30;;;;;;4975130;28;20195;-88
2022/03/26 12:33:41;;;;;;;28.42;25.13;;;23.00;23.00;;;;;;4972652;28;20275;-88
2022/03/26 12:36:07;;;;;;;29.25;26.00;;;23.00;24.00;;;;;;4984978;28;20225;-89
2022/03/26 12:38:33;;;;;;;31.85;25.52;;;22.80;22.80;;;;;;4977006;28;20558;-89
2022/03/26 12:41:01;;;;;;;26.45;23.52;;;22.80;23.10;;;;;;5000721;28;20180;-88